Time;durP1;ratioP1;P1;durP2;ratioP2;P2;SDS_P1;SDS_P2;PMS_P1;PMS_P2;Temp;Humidity;BMP_temperature;BMP_pressure;BME280_temperature;BME280_humidity;BME280_pressure;Samples;Min_cycle;Max_cycle;Signal;HPM_P1;HPM_P2
2023/07/19 00:02:19;;;;;;;3.12;2.05;;;22.70;49.40;;;;;;949768;147;27336;-75
2023/07/19 00:04:47;;;;;;;2.87;2.00;;;22.70;49.50;;;;;;949706;147;27356;-76
2023/07/19 00:07:12;;;;;;;3.55;1.85;;;22.70;49.60;;;;;;949053;147;27312;-75
2023/07/19 00:09:38;;;;;;;2.10;1.90;;;22.70;49.80;;;;;;950114;147;27515;-75
2023/07/19 00:12:06;;;;;;;2.25;2.05;;;22.60;49.80;;;;;;950105;147;27355;-75
2023/07/19 00:14:32;;;;;;;2.25;2.05;;;22.60;49.80;;;;;;948982;147;27480;-76
2023/07/19 00:16:59;;;;;;;2.20;2.00;;;22.60;49.90;;;;;;941661;149;27450;-76
2023/07/19 00:19:25;;;;;;;3.47;2.25;;;22.60;49.90;;;;;;942410;149;27352;-75
2023/07/19 00:21:52;;;;;;;2.17;1.98;;;22.50;50.00;;;;;;949840;147;27419;-75
2023/07/19 00:24:19;;;;;;;2.12;1.92;;;22.40;50.00;;;;;;927122;150;27430;-75
2023/07/19 00:26:45;;;;;;;5.65;2.30;;;22.40;50.10;;;;;;949349;147;27337;-75
2023/07/19 00:29:12;;;;;;;2.45;2.25;;;22.50;50.30;;;;;;949277;146;27334;-75
2023/07/19 00:31:38;;;;;;;2.25;2.00;;;22.40;50.30;;;;;;932710;150;27351;-75
2023/07/19 00:34:05;;;;;;;2.55;1.98;;;22.40;50.30;;;;;;950909;147;27417;-75
2023/07/19 00:36:31;;;;;;;3.05;2.27;;;22.40;50.30;;;;;;950550;147;27723;-75
2023/07/19 00:38:58;;;;;;;1.87;1.72;;;22.40;50.50;;;;;;949714;146;27402;-75
2023/07/19 00:41:24;;;;;;;2.27;2.08;;;22.40;50.60;;;;;;934960;149;27303;-75
2023/07/19 00:43:51;;;;;;;3.25;2.00;;;22.40;50.70;;;;;;928034;150;27339;-75
2023/07/19 00:46:18;;;;;;;2.42;2.10;;;22.30;50.80;;;;;;943183;149;27362;-75
2023/07/19 00:48:44;;;;;;;3.00;2.17;;;22.30;50.90;;;;;;950001;147;27331;-75
2023/07/19 00:51:11;;;;;;;3.85;2.25;;;22.30;51.70;;;;;;950780;147;27418;-75
2023/07/19 00:53:37;;;;;;;5.28;2.67;;;22.30;51.10;;;;;;951761;147;27304;-75
2023/07/19 00:56:04;;;;;;;2.35;2.15;;;22.20;51.20;;;;;;935428;149;27322;-75
2023/07/19 00:58:31;;;;;;;4.05;2.27;;;22.20;51.40;;;;;;950682;147;27343;-75
2023/07/19 01:00:57;;;;;;;2.70;2.35;;;22.20;51.50;;;;;;950353;147;27343;-75
2023/07/19 01:03:24;;;;;;;2.27;2.08;;;22.10;51.40;;;;;;934669;150;27447;-75
2023/07/19 01:05:50;;;;;;;2.45;2.25;;;22.10;51.50;;;;;;950849;147;27397;-75
2023/07/19 01:08:18;;;;;;;3.17;1.98;;;22.10;51.60;;;;;;950985;147;27395;-75
2023/07/19 01:10:44;;;;;;;2.87;2.15;;;22.00;51.80;;;;;;925846;150;27353;-75
2023/07/19 01:13:10;;;;;;;2.83;2.10;;;22.00;51.90;;;;;;943438;149;27266;-75
2023/07/19 01:15:37;;;;;;;2.17;1.98;;;21.90;52.00;;;;;;933611;150;27435;-75
2023/07/19 01:18:03;;;;;;;2.12;2.00;;;21.90;52.10;;;;;;950949;147;27325;-75
2023/07/19 01:20:30;;;;;;;1.92;1.82;;;21.80;52.20;;;;;;950615;147;27354;-75
2023/07/19 01:22:56;;;;;;;2.27;2.08;;;21.70;52.30;;;;;;949339;146;27419;-75
2023/07/19 01:25:23;;;;;;;2.20;2.00;;;21.70;52.30;;;;;;933932;150;27371;-75
2023/07/19 01:27:50;;;;;;;2.10;1.90;;;21.60;52.40;;;;;;950389;147;27393;-75
2023/07/19 01:30:16;;;;;;;2.80;2.45;;;21.50;52.60;;;;;;934585;150;27341;-75
2023/07/19 01:32:44;;;;;;;1.90;1.80;;;21.50;52.60;;;;;;951151;147;27466;-75
2023/07/19 01:35:09;;;;;;;3.27;2.10;;;21.40;52.70;;;;;;950535;147;27388;-75
2023/07/19 01:37:36;;;;;;;2.15;1.90;;;21.40;52.90;;;;;;927390;150;27347;-75
2023/07/19 01:40:03;;;;;;;3.77;2.20;;;21.30;52.80;;;;;;943097;149;27422;-75
2023/07/19 01:42:29;;;;;;;2.30;2.10;;;21.20;52.80;;;;;;949115;147;27335;-75
2023/07/19 01:44:56;;;;;;;3.02;2.58;;;21.20;53.10;;;;;;942627;149;27398;-75
2023/07/19 01:47:22;;;;;;;1.92;1.77;;;21.10;53.10;;;;;;943191;149;27332;-75
2023/07/19 01:49:49;;;;;;;2.30;1.92;;;21.00;53.20;;;;;;948210;147;27295;-75
2023/07/19 01:52:16;;;;;;;2.10;2.00;;;21.00;53.30;;;;;;950915;147;27336;-75
2023/07/19 01:54:42;;;;;;;2.65;2.40;;;20.90;53.30;;;;;;943459;148;27348;-75
2023/07/19 01:57:09;;;;;;;3.65;2.15;;;20.80;53.40;;;;;;944158;149;27628;-75
2023/07/19 01:59:35;;;;;;;2.45;2.10;;;20.80;53.80;;;;;;951163;147;27414;-75
2023/07/19 02:02:02;;;;;;;2.35;2.08;;;20.70;53.70;;;;;;950090;147;27273;-75
2023/07/19 02:04:29;;;;;;;1.90;1.75;;;20.70;54.00;;;;;;927968;150;27431;-75
2023/07/19 02:06:55;;;;;;;2.40;2.17;;;20.60;54.20;;;;;;942427;149;27384;-75
2023/07/19 02:09:22;;;;;;;2.83;2.20;;;20.60;54.30;;;;;;943086;149;27383;-75
2023/07/19 02:11:48;;;;;;;2.33;2.10;;;20.50;54.40;;;;;;949170;147;27299;-75
2023/07/19 02:14:15;;;;;;;3.52;2.20;;;20.50;54.60;;;;;;948541;147;27328;-75
2023/07/19 02:16:41;;;;;;;2.55;2.10;;;20.40;54.70;;;;;;947918;148;27320;-75
2023/07/19 02:19:08;;;;;;;2.27;2.08;;;20.40;54.90;;;;;;947636;148;27353;-75
2023/07/19 02:21:35;;;;;;;2.75;2.30;;;20.30;55.00;;;;;;947278;151;27225;-75
2023/07/19 02:24:01;;;;;;;3.20;1.82;;;20.30;55.20;;;;;;947960;148;27289;-75
2023/07/19 02:26:28;;;;;;;2.17;1.98;;;20.20;55.30;;;;;;947923;148;27336;-75
2023/07/19 02:28:54;;;;;;;1.98;1.87;;;20.20;55.50;;;;;;947768;148;27300;-75
2023/07/19 02:31:21;;;;;;;2.15;1.82;;;20.20;55.60;;;;;;947785;150;27327;-75
2023/07/19 02:33:48;;;;;;;2.42;1.98;;;20.10;55.80;;;;;;947857;148;27405;-75
2023/07/19 02:36:14;;;;;;;2.70;2.33;;;20.10;55.90;;;;;;947789;151;27288;-75
2023/07/19 02:38:43;;;;;;;3.27;2.10;;;20.00;56.00;;;;;;947943;148;27326;-75
2023/07/19 02:41:07;;;;;;;2.55;2.35;;;20.00;56.10;;;;;;946832;148;27309;-75
2023/07/19 02:43:34;;;;;;;3.50;2.60;;;19.90;56.30;;;;;;947478;148;27339;-75
2023/07/19 02:46:00;;;;;;;2.60;2.35;;;19.80;56.50;;;;;;947677;148;27300;-75
2023/07/19 02:48:27;;;;;;;2.33;1.98;;;19.80;56.70;;;;;;947604;148;27429;-74
2023/07/19 02:50:54;;;;;;;2.45;2.00;;;19.80;56.90;;;;;;947892;148;27310;-75
2023/07/19 02:53:20;;;;;;;2.22;2.00;;;19.70;57.10;;;;;;947409;151;27318;-75
2023/07/19 02:55:47;;;;;;;2.22;2.02;;;19.70;57.10;;;;;;947941;148;27377;-75
2023/07/19 02:58:13;;;;;;;2.72;2.22;;;19.70;57.10;;;;;;947215;151;27804;-75
2023/07/19 03:00:40;;;;;;;2.42;2.22;;;19.60;57.10;;;;;;947891;148;27331;-75
2023/07/19 03:03:07;;;;;;;2.42;1.57;;;19.60;57.30;;;;;;947264;148;27329;-75
2023/07/19 03:05:51;;;;;;;3.08;2.10;;;19.50;57.40;;;;;;950444;148;27287;-75
2023/07/19 03:08:04;;;;;;;2.50;2.12;;;19.50;57.60;;;;;;948190;148;27456;-75
2023/07/19 03:10:29;;;;;;;2.87;2.33;;;19.50;57.60;;;;;;950162;150;27334;-75
2023/07/19 03:12:56;;;;;;;2.67;2.47;;;19.50;57.80;;;;;;936921;150;27444;-75
2023/07/19 03:15:22;;;;;;;3.40;2.35;;;19.40;57.90;;;;;;961216;145;27363;-75
2023/07/19 03:17:49;;;;;;;3.25;2.80;;;19.40;58.00;;;;;;950912;148;27371;-75
2023/07/19 03:20:15;;;;;;;2.17;2.00;;;19.30;58.00;;;;;;952001;148;27363;-75
2023/07/19 03:22:42;;;;;;;2.72;2.50;;;19.30;58.20;;;;;;951070;148;27434;-75
2023/07/19 03:25:09;;;;;;;3.62;2.70;;;19.20;58.20;;;;;;951039;148;27374;-75
2023/07/19 03:27:35;;;;;;;3.05;2.08;;;19.20;58.30;;;;;;968349;145;27251;-75
2023/07/19 03:30:02;;;;;;;2.42;2.22;;;19.10;58.50;;;;;;948960;148;27730;-75
2023/07/19 03:32:29;;;;;;;2.85;2.60;;;19.10;58.60;;;;;;942766;148;27466;-75
2023/07/19 03:34:55;;;;;;;2.65;2.42;;;19.10;58.60;;;;;;967866;145;27306;-75
2023/07/19 03:37:22;;;;;;;5.25;2.40;;;19.00;58.60;;;;;;968437;145;27243;-75
2023/07/19 03:39:48;;;;;;;2.33;2.08;;;19.00;58.70;;;;;;951028;148;27477;-75
2023/07/19 03:42:15;;;;;;;3.52;2.80;;;19.00;58.90;;;;;;967918;145;27341;-75
2023/07/19 03:44:41;;;;;;;4.33;2.45;;;18.90;58.90;;;;;;952485;148;27400;-75
2023/07/19 03:47:08;;;;;;;2.65;2.45;;;18.90;59.00;;;;;;945395;147;27341;-75
2023/07/19 03:49:34;;;;;;;2.55;2.35;;;18.90;59.20;;;;;;968384;145;27310;-74
2023/07/19 03:52:01;;;;;;;3.47;2.60;;;18.90;59.30;;;;;;968580;145;27418;-75
2023/07/19 03:54:28;;;;;;;2.50;2.30;;;18.90;59.40;;;;;;952857;148;27472;-75
2023/07/19 03:56:54;;;;;;;3.20;2.90;;;18.90;59.50;;;;;;951233;148;27753;-75
2023/07/19 03:59:21;;;;;;;2.80;2.60;;;18.90;59.60;;;;;;952091;148;27344;-75
2023/07/19 04:01:47;;;;;;;2.65;2.45;;;18.90;59.60;;;;;;968611;145;27340;-74
2023/07/19 04:04:14;;;;;;;2.60;2.40;;;18.90;59.60;;;;;;967260;145;27345;-75
2023/07/19 04:06:41;;;;;;;2.40;2.20;;;18.90;59.70;;;;;;967395;145;27326;-75
2023/07/19 04:09:07;;;;;;;3.25;2.33;;;18.80;59.60;;;;;;967486;145;27262;-74
2023/07/19 04:11:34;;;;;;;2.83;2.37;;;18.80;59.80;;;;;;967857;145;27717;-75
2023/07/19 04:14:00;;;;;;;2.58;2.37;;;18.80;59.70;;;;;;966877;145;27352;-75
2023/07/19 04:16:27;;;;;;;2.60;2.20;;;18.80;59.80;;;;;;964879;145;27397;-75
2023/07/19 04:18:54;;;;;;;2.95;2.65;;;18.80;59.90;;;;;;949171;146;27363;-75
2023/07/19 04:21:21;;;;;;;2.87;2.58;;;18.90;60.00;;;;;;951330;147;27420;-75
2023/07/19 04:23:47;;;;;;;2.35;2.15;;;18.90;60.30;;;;;;951285;147;27426;-75
2023/07/19 04:26:13;;;;;;;2.67;2.47;;;18.90;60.40;;;;;;951176;147;27494;-75
2023/07/19 04:28:40;;;;;;;4.92;3.37;;;18.90;60.40;;;;;;951043;147;27250;-75
2023/07/19 04:31:06;;;;;;;3.12;2.77;;;18.90;60.50;;;;;;950998;147;27316;-75
2023/07/19 04:33:33;;;;;;;4.30;3.15;;;18.90;60.70;;;;;;932081;149;27338;-75
2023/07/19 04:36:00;;;;;;;2.85;2.65;;;19.00;60.80;;;;;;934462;149;27497;-75
2023/07/19 04:38:26;;;;;;;3.87;2.47;;;19.10;60.90;;;;;;926868;150;27389;-75
2023/07/19 04:40:53;;;;;;;2.85;2.65;;;19.10;60.70;;;;;;942629;149;27361;-75
2023/07/19 04:43:19;;;;;;;3.00;2.50;;;19.20;60.90;;;;;;942334;149;27266;-75
2023/07/19 04:45:46;;;;;;;4.47;2.70;;;19.30;60.80;;;;;;942797;149;27438;-75
2023/07/19 04:48:13;;;;;;;3.30;2.75;;;19.40;61.00;;;;;;943016;149;27420;-75
2023/07/19 04:50:39;;;;;;;3.25;2.50;;;19.50;61.00;;;;;;942943;149;27345;-75
2023/07/19 04:53:06;;;;;;;3.17;2.83;;;19.60;61.00;;;;;;941902;149;27322;-75
2023/07/19 04:55:33;;;;;;;2.67;2.35;;;19.70;61.10;;;;;;942752;149;27326;-75
2023/07/19 04:57:59;;;;;;;3.95;2.55;;;19.80;61.10;;;;;;942738;149;27458;-76
2023/07/19 05:00:27;;;;;;;3.33;2.42;;;19.90;61.10;;;;;;942696;149;27348;-75
2023/07/19 05:02:52;;;;;;;4.45;3.27;;;20.00;61.00;;;;;;942612;149;27321;-75
2023/07/19 05:05:19;;;;;;;3.30;2.80;;;20.10;61.00;;;;;;943272;149;27334;-76
2023/07/19 05:07:45;;;;;;;8.43;2.85;;;20.30;61.00;;;;;;949233;147;27348;-75
2023/07/19 05:10:12;;;;;;;3.12;2.58;;;20.50;61.40;;;;;;949085;146;27338;-76
2023/07/19 05:12:38;;;;;;;4.35;2.10;;;20.80;61.80;;;;;;927399;150;27732;-75
2023/07/19 05:15:05;;;;;;;2.47;2.27;;;21.30;62.10;;;;;;950381;147;27318;-76
2023/07/19 05:17:32;;;;;;;2.50;2.08;;;21.80;62.20;;;;;;950194;146;27308;-76
2023/07/19 05:19:58;;;;;;;3.02;2.50;;;22.40;61.90;;;;;;959249;146;27435;-76
2023/07/19 05:22:26;;;;;;;3.83;2.37;;;23.10;61.30;;;;;;964077;146;27339;-76
2023/07/19 05:24:51;;;;;;;3.85;2.33;;;23.80;60.60;;;;;;954135;147;27309;-76
2023/07/19 05:27:18;;;;;;;2.62;2.40;;;24.60;59.70;;;;;;959017;148;27242;-76
2023/07/19 05:29:45;;;;;;;2.75;2.42;;;25.40;58.80;;;;;;959617;148;27408;-76
2023/07/19 05:32:11;;;;;;;3.17;2.20;;;26.20;58.00;;;;;;959205;148;27351;-76
2023/07/19 05:34:38;;;;;;;2.83;2.27;;;27.00;56.80;;;;;;959478;148;27315;-76
2023/07/19 05:37:06;;;;;;;4.55;2.30;;;27.70;55.90;;;;;;959185;146;27407;-76
2023/07/19 05:39:31;;;;;;;2.50;2.30;;;28.50;55.00;;;;;;959216;148;27428;-76
2023/07/19 05:41:58;;;;;;;2.20;2.00;;;29.10;54.00;;;;;;959409;148;27425;-76
2023/07/19 05:44:24;;;;;;;2.05;1.95;;;29.80;53.00;;;;;;959213;146;27389;-76
2023/07/19 05:46:52;;;;;;;2.27;2.15;;;30.40;52.10;;;;;;958546;148;27325;-76
2023/07/19 05:49:17;;;;;;;2.65;2.27;;;31.00;51.30;;;;;;959286;148;27427;-77
2023/07/19 05:51:44;;;;;;;2.52;2.33;;;31.70;50.50;;;;;;959614;148;27426;-76
2023/07/19 05:54:11;;;;;;;4.60;2.72;;;32.30;49.60;;;;;;959448;148;27295;-76
2023/07/19 05:56:37;;;;;;;4.40;2.42;;;32.80;48.70;;;;;;959065;148;27316;-76
2023/07/19 05:59:04;;;;;;;2.87;2.65;;;33.30;48.00;;;;;;959417;148;27399;-76
2023/07/19 06:01:30;;;;;;;2.98;2.72;;;33.80;47.40;;;;;;958758;148;28136;-76
2023/07/19 06:03:57;;;;;;;2.80;2.50;;;34.30;46.80;;;;;;959337;146;27351;-76
2023/07/19 06:06:25;;;;;;;2.67;2.08;;;34.80;46.10;;;;;;959006;146;26256;-76
2023/07/19 06:08:50;;;;;;;3.67;2.40;;;35.30;45.40;;;;;;959136;148;27867;-75
2023/07/19 06:11:17;;;;;;;2.47;2.20;;;35.80;44.70;;;;;;959145;146;26219;-76
2023/07/19 06:13:43;;;;;;;5.12;2.60;;;36.20;44.20;;;;;;959672;148;26719;-76
2023/07/19 06:16:10;;;;;;;2.65;2.40;;;36.60;43.60;;;;;;958861;148;26245;-76
2023/07/19 06:18:36;;;;;;;2.65;2.30;;;37.00;43.10;;;;;;959169;148;26257;-76
2023/07/19 06:21:03;;;;;;;4.58;2.42;;;37.40;42.60;;;;;;959078;146;26239;-76
2023/07/19 06:23:30;;;;;;;2.75;2.27;;;37.80;42.00;;;;;;959432;148;26244;-76
2023/07/19 06:25:56;;;;;;;3.05;2.35;;;38.20;41.60;;;;;;959096;146;27455;-76
2023/07/19 06:28:23;;;;;;;6.42;2.50;;;38.60;41.30;;;;;;958959;148;26266;-76
2023/07/19 06:30:49;;;;;;;2.80;2.27;;;39.00;40.60;;;;;;959729;148;26305;-76
2023/07/19 06:33:16;;;;;;;3.15;2.30;;;39.40;39.90;;;;;;959219;146;26197;-76
2023/07/19 06:35:43;;;;;;;2.70;2.50;;;39.90;39.40;;;;;;958937;149;26300;-76
2023/07/19 06:38:09;;;;;;;2.90;2.27;;;40.20;38.70;;;;;;958761;148;26274;-77
2023/07/19 06:40:36;;;;;;;6.60;2.40;;;40.60;38.30;;;;;;959428;149;26337;-76
2023/07/19 06:43:04;;;;;;;5.12;2.40;;;41.00;37.80;;;;;;958626;149;26283;-77
2023/07/19 06:45:29;;;;;;;2.33;2.12;;;41.30;37.30;;;;;;959008;148;26251;-76
2023/07/19 06:47:56;;;;;;;2.62;2.27;;;41.70;36.70;;;;;;958985;148;26272;-77
2023/07/19 06:50:23;;;;;;;2.80;2.50;;;42.00;36.00;;;;;;959446;149;26801;-77
2023/07/19 06:52:49;;;;;;;2.72;1.95;;;42.40;35.50;;;;;;958696;146;26228;-76
2023/07/19 06:55:15;;;;;;;3.42;2.10;;;42.70;35.10;;;;;;959085;148;26237;-77
2023/07/19 06:57:42;;;;;;;2.40;2.20;;;43.00;34.70;;;;;;958961;148;26275;-77
2023/07/19 07:00:08;;;;;;;2.20;2.00;;;43.30;34.20;;;;;;958111;148;26270;-77
2023/07/19 07:02:35;;;;;;;2.55;2.35;;;43.70;33.90;;;;;;958706;148;26232;-77
2023/07/19 07:05:02;;;;;;;2.20;2.00;;;44.00;33.50;;;;;;958365;148;26214;-77
2023/07/19 07:07:28;;;;;;;2.30;2.10;;;44.30;33.20;;;;;;957928;146;26341;-77
2023/07/19 07:09:57;;;;;;;2.33;2.08;;;44.70;32.60;;;;;;958398;146;26362;-77
2023/07/19 07:12:21;;;;;;;2.25;2.05;;;45.00;31.90;;;;;;957871;148;26236;-77
2023/07/19 07:14:48;;;;;;;4.28;1.98;;;45.30;31.40;;;;;;958225;148;26244;-77
2023/07/19 07:17:15;;;;;;;2.85;2.05;;;45.60;31.00;;;;;;958165;148;26243;-77
2023/07/19 07:19:41;;;;;;;3.10;2.40;;;45.70;30.60;;;;;;958727;149;26264;-77
2023/07/19 07:22:08;;;;;;;2.77;2.17;;;46.00;30.90;;;;;;952006;148;26273;-78
2023/07/19 07:24:34;;;;;;;4.00;2.70;;;46.20;30.00;;;;;;952196;148;26233;-77
2023/07/19 07:27:03;;;;;;;3.75;2.15;;;46.30;29.50;;;;;;952202;149;26202;-78
2023/07/19 07:29:28;;;;;;;3.27;2.17;;;46.60;29.20;;;;;;952243;148;26249;-77
2023/07/19 07:31:54;;;;;;;2.00;1.90;;;46.80;28.80;;;;;;951825;148;26345;-78
2023/07/19 07:34:21;;;;;;;2.08;1.82;;;46.90;28.70;;;;;;952066;148;26254;-77
2023/07/19 07:36:47;;;;;;;2.40;2.17;;;47.10;28.40;;;;;;952363;149;26222;-78
2023/07/19 07:39:14;;;;;;;2.30;2.10;;;47.40;28.20;;;;;;952319;148;26236;-77
2023/07/19 07:41:40;;;;;;;2.50;2.00;;;47.60;28.00;;;;;;952539;148;26251;-78
2023/07/19 07:44:07;;;;;;;4.75;2.10;;;47.80;27.80;;;;;;952621;148;26236;-78
2023/07/19 07:46:34;;;;;;;2.25;2.05;;;48.00;27.50;;;;;;952073;147;26321;-78
2023/07/19 07:49:00;;;;;;;2.75;2.42;;;48.20;27.30;;;;;;952251;147;26663;-78
2023/07/19 07:51:30;;;;;;;2.15;1.95;;;48.50;27.00;;;;;;952075;148;26247;-78
2023/07/19 07:53:56;;;;;;;2.30;2.10;;;48.70;26.60;;;;;;952102;148;26275;-78
2023/07/19 07:56:23;;;;;;;4.33;1.90;;;48.90;26.40;;;;;;951827;147;26324;-78
2023/07/19 07:58:49;;;;;;;1.57;1.47;;;49.00;26.20;;;;;;950975;147;26298;-78
2023/07/19 08:01:16;;;;;;;2.22;1.90;;;49.20;25.70;;;;;;951256;148;26361;-78
2023/07/19 08:03:42;;;;;;;1.98;1.70;;;49.20;25.60;;;;;;951083;147;26256;-78
2023/07/19 08:06:09;;;;;;;2.92;1.90;;;49.30;26.00;;;;;;950774;147;26271;-78
2023/07/19 08:08:36;;;;;;;1.75;1.65;;;49.40;25.20;;;;;;950023;147;26740;-78
2023/07/19 08:11:05;;;;;;;2.95;2.00;;;49.40;25.00;;;;;;949345;146;26321;-78
2023/07/19 08:13:33;;;;;;;2.62;1.70;;;49.40;24.70;;;;;;951342;147;26260;-78
2023/07/19 08:15:58;;;;;;;2.20;1.80;;;49.30;24.50;;;;;;950633;147;26257;-78
2023/07/19 08:18:25;;;;;;;2.37;2.05;;;49.10;24.40;;;;;;950678;149;26226;-78
2023/07/19 08:20:52;;;;;;;2.05;1.90;;;49.00;24.50;;;;;;951301;147;26259;-78
2023/07/19 08:23:19;;;;;;;2.87;1.82;;;48.90;24.60;;;;;;950760;147;26275;-78
2023/07/19 08:25:45;;;;;;;2.52;1.85;;;49.00;24.80;;;;;;951473;149;26316;-78
2023/07/19 08:28:11;;;;;;;2.35;1.80;;;49.10;24.60;;;;;;951327;148;26260;-79
2023/07/19 08:30:38;;;;;;;1.90;1.70;;;49.30;24.60;;;;;;952170;149;26220;-78
2023/07/19 08:33:08;;;;;;;3.02;1.90;;;49.50;24.40;;;;;;951442;148;26610;-78
2023/07/19 08:35:31;;;;;;;2.00;1.70;;;49.70;24.20;;;;;;951085;147;26398;-78
2023/07/19 08:37:58;;;;;;;1.90;1.80;;;49.90;24.00;;;;;;951843;148;26308;-78
2023/07/19 08:40:24;;;;;;;2.50;1.98;;;50.00;23.90;;;;;;951192;147;26368;-78
2023/07/19 08:42:51;;;;;;;1.57;1.47;;;50.20;23.70;;;;;;951263;148;26574;-78
2023/07/19 08:45:17;;;;;;;2.20;2.00;;;50.30;23.60;;;;;;952068;148;26260;-78
2023/07/19 08:47:44;;;;;;;1.60;1.50;;;50.60;23.60;;;;;;950835;147;26344;-78
2023/07/19 08:50:11;;;;;;;1.80;1.70;;;50.80;23.40;;;;;;950735;147;26233;-78
2023/07/19 08:52:37;;;;;;;1.82;1.72;;;51.00;23.30;;;;;;951512;149;26251;-79
2023/07/19 08:55:04;;;;;;;1.90;1.47;;;51.20;23.10;;;;;;951753;148;26260;-79
2023/07/19 08:57:30;;;;;;;1.80;1.70;;;51.40;22.90;;;;;;951294;147;26337;-79
2023/07/19 08:59:57;;;;;;;1.85;1.75;;;51.60;22.80;;;;;;951531;148;26263;-78
2023/07/19 09:02:25;;;;;;;1.82;1.72;;;51.70;22.50;;;;;;950862;149;26229;-78
2023/07/19 09:05:08;;;;;;;1.82;1.42;;;51.90;22.40;;;;;;951969;149;26280;-79
2023/07/19 09:07:35;;;;;;;1.72;1.62;;;52.00;22.30;;;;;;950441;148;26269;-79
2023/07/19 09:10:01;;;;;;;2.10;1.90;;;52.10;22.20;;;;;;950895;149;26226;-78
2023/07/19 09:12:37;;;;;;;1.92;1.37;;;52.20;22.00;;;;;;951719;148;26244;-78
2023/07/19 09:15:03;;;;;;;1.67;1.55;;;52.30;22.50;;;;;;951373;148;26330;-78
2023/07/19 09:17:30;;;;;;;1.67;1.32;;;52.30;21.70;;;;;;949595;147;26241;-78
2023/07/19 09:19:56;;;;;;;1.95;1.75;;;52.50;21.70;;;;;;949454;147;26234;-79
2023/07/19 09:22:23;;;;;;;1.60;1.50;;;52.50;21.50;;;;;;941692;147;26269;-79
2023/07/19 09:24:57;;;;;;;1.50;1.40;;;52.60;21.60;;;;;;932394;150;26276;-79
2023/07/19 09:27:27;;;;;;;1.67;1.37;;;52.60;21.20;;;;;;912442;152;26301;-79
2023/07/19 09:29:54;;;;;;;2.45;1.50;;;52.60;21.10;;;;;;913477;152;26277;-79
2023/07/19 09:32:22;;;;;;;1.50;1.40;;;52.50;20.90;;;;;;912446;152;26325;-79
2023/07/19 09:34:47;;;;;;;1.80;1.70;;;52.50;20.90;;;;;;933708;150;26902;-78
2023/07/19 09:37:14;;;;;;;2.35;1.50;;;52.50;20.70;;;;;;937255;149;26375;-79
2023/07/19 09:39:40;;;;;;;1.57;1.40;;;52.30;20.70;;;;;;917677;153;26242;-78
2023/07/19 09:42:10;;;;;;;2.17;1.50;;;52.20;20.70;;;;;;932806;150;26321;-78
2023/07/19 09:44:34;;;;;;;1.50;1.40;;;52.00;20.70;;;;;;916050;152;26388;-79
2023/07/19 09:47:00;;;;;;;1.65;1.55;;;51.90;20.80;;;;;;910061;152;26409;-78
2023/07/19 09:49:26;;;;;;;1.50;1.40;;;51.80;20.90;;;;;;917689;152;26268;-79
2023/07/19 09:51:53;;;;;;;3.60;1.60;;;51.70;20.70;;;;;;916446;152;26367;-76
2023/07/19 09:54:20;;;;;;;1.62;1.50;;;51.60;20.70;;;;;;932359;150;26272;-75
2023/07/19 09:56:46;;;;;;;1.60;1.50;;;51.40;20.60;;;;;;932814;150;26277;-76
2023/07/19 09:59:16;;;;;;;1.50;1.40;;;51.20;20.60;;;;;;932375;150;26363;-78
2023/07/19 10:01:43;;;;;;;1.07;1.07;;;50.80;20.60;;;;;;929990;149;26283;-79
2023/07/19 10:04:30;;;;;;;1.55;1.45;;;50.50;20.60;;;;;;932929;151;26295;-78
2023/07/19 10:07:12;;;;;;;1.42;1.30;;;50.10;20.70;;;;;;931996;151;26300;-78
2023/07/19 10:09:38;;;;;;;1.70;1.30;;;49.60;20.70;;;;;;931814;151;26349;-78
2023/07/19 10:12:07;;;;;;;1.98;1.70;;;49.10;20.60;;;;;;931139;150;26265;-72
2023/07/19 10:14:34;;;;;;;1.67;1.45;;;48.50;20.70;;;;;;932895;151;26320;-72
2023/07/19 10:17:00;;;;;;;4.03;1.62;;;47.90;20.80;;;;;;932480;151;26398;-71
2023/07/19 10:19:27;;;;;;;1.40;1.37;;;47.20;21.10;;;;;;933275;151;26280;-72
2023/07/19 10:22:03;;;;;;;1.82;1.35;;;46.70;21.30;;;;;;932676;150;26253;-71
2023/07/19 10:24:29;;;;;;;1.50;1.40;;;46.10;21.50;;;;;;949038;147;26303;-71
2023/07/19 10:26:56;;;;;;;2.27;1.80;;;45.70;21.70;;;;;;949589;147;26259;-73
2023/07/19 10:29:25;;;;;;;3.40;1.57;;;45.20;21.80;;;;;;950107;147;26322;-71
2023/07/19 10:31:52;;;;;;;1.55;1.45;;;44.90;22.10;;;;;;949415;147;26268;-71
2023/07/19 10:34:18;;;;;;;1.60;1.50;;;44.60;22.10;;;;;;949046;147;26412;-71
2023/07/19 10:36:46;;;;;;;1.85;1.75;;;44.30;22.20;;;;;;948047;147;26311;-71
2023/07/19 10:39:11;;;;;;;1.82;1.67;;;44.00;22.40;;;;;;947428;147;26272;-71
2023/07/19 10:41:38;;;;;;;1.37;1.27;;;43.70;22.40;;;;;;949316;147;26256;-71
2023/07/19 10:44:05;;;;;;;3.22;1.77;;;43.30;22.50;;;;;;948541;147;27370;-71
2023/07/19 10:46:31;;;;;;;1.85;1.52;;;42.90;22.60;;;;;;949625;147;26272;-70
2023/07/19 10:48:58;;;;;;;2.45;1.75;;;42.50;22.70;;;;;;948972;147;26284;-71
2023/07/19 10:51:24;;;;;;;2.08;1.52;;;42.10;22.90;;;;;;948873;147;26805;-71
2023/07/19 10:53:57;;;;;;;1.98;1.60;;;41.60;23.10;;;;;;949269;147;26255;-71
2023/07/19 10:56:24;;;;;;;1.55;1.45;;;41.20;23.40;;;;;;948854;147;26300;-71
2023/07/19 10:58:50;;;;;;;1.60;1.50;;;40.80;23.90;;;;;;948903;147;26306;-71
2023/07/19 11:01:17;;;;;;;2.98;1.70;;;40.40;23.90;;;;;;949658;147;26223;-71
2023/07/19 11:03:46;;;;;;;3.47;1.60;;;40.10;24.00;;;;;;949439;147;26282;-71
2023/07/19 11:06:13;;;;;;;1.75;1.60;;;39.80;24.10;;;;;;949047;146;26270;-71
2023/07/19 11:08:39;;;;;;;2.90;1.47;;;39.50;24.30;;;;;;930707;149;26260;-71
2023/07/19 11:11:06;;;;;;;4.95;1.70;;;39.20;24.50;;;;;;946860;148;26353;-70
2023/07/19 11:13:34;;;;;;;2.30;1.72;;;39.00;24.80;;;;;;954449;146;26208;-71
2023/07/19 11:15:59;;;;;;;2.12;1.77;;;38.80;25.00;;;;;;953900;146;26314;-71
2023/07/19 11:18:40;;;;;;;1.82;1.50;;;38.60;25.20;;;;;;946778;148;26361;-70
2023/07/19 11:21:07;;;;;;;1.75;1.60;;;38.50;25.40;;;;;;931521;149;26261;-71
2023/07/19 11:23:45;;;;;;;1.85;1.70;;;38.40;25.40;;;;;;932070;149;26381;-71
2023/07/19 11:26:09;;;;;;;2.47;1.87;;;38.30;25.50;;;;;;932662;149;26289;-71
2023/07/19 11:28:47;;;;;;;2.08;1.32;;;38.30;25.80;;;;;;932943;149;26293;-71
2023/07/19 11:31:32;;;;;;;1.70;1.60;;;38.20;25.70;;;;;;932229;149;27472;-71
2023/07/19 11:34:01;;;;;;;2.50;1.57;;;38.10;25.70;;;;;;950402;147;26362;-70
2023/07/19 11:36:28;;;;;;;1.47;1.37;;;38.00;25.80;;;;;;948906;148;27382;-70
2023/07/19 11:38:54;;;;;;;2.33;1.75;;;37.90;26.10;;;;;;932703;149;27463;-71
2023/07/19 11:41:21;;;;;;;2.40;1.45;;;37.80;26.10;;;;;;932194;149;26345;-71
2023/07/19 11:43:48;;;;;;;2.05;1.85;;;37.70;26.40;;;;;;950836;148;26360;-70
2023/07/19 11:46:14;;;;;;;2.17;1.60;;;37.60;26.40;;;;;;931256;149;26284;-70
2023/07/19 11:48:41;;;;;;;1.87;1.67;;;37.60;26.60;;;;;;931682;149;26277;-71
2023/07/19 11:51:07;;;;;;;3.20;1.87;;;37.60;26.70;;;;;;932279;149;26239;-70
2023/07/19 11:53:34;;;;;;;2.45;1.60;;;37.60;26.70;;;;;;948467;146;27319;-71
2023/07/19 11:56:00;;;;;;;1.77;1.62;;;37.60;26.70;;;;;;953662;146;26233;-71
2023/07/19 11:58:27;;;;;;;1.52;1.42;;;37.50;26.50;;;;;;946533;148;27495;-71
2023/07/19 12:00:55;;;;;;;2.05;1.50;;;37.50;26.60;;;;;;946711;148;27333;-71
2023/07/19 12:03:20;;;;;;;2.92;1.92;;;37.40;26.70;;;;;;946922;148;26329;-70
2023/07/19 12:05:47;;;;;;;2.98;1.67;;;37.30;26.70;;;;;;947217;148;27687;-71
2023/07/19 12:08:15;;;;;;;1.62;1.50;;;37.20;26.80;;;;;;947688;148;26328;-70
2023/07/19 12:10:40;;;;;;;1.72;1.52;;;37.10;26.90;;;;;;947294;148;27447;-71
2023/07/19 12:13:07;;;;;;;1.82;1.70;;;37.10;27.10;;;;;;932682;149;26252;-71
2023/07/19 12:15:33;;;;;;;3.10;1.75;;;37.00;27.10;;;;;;931326;149;27358;-70
2023/07/19 12:18:00;;;;;;;1.70;1.60;;;37.00;27.20;;;;;;932240;149;26297;-71
2023/07/19 12:20:27;;;;;;;2.70;1.72;;;37.00;27.20;;;;;;954609;146;26342;-70
2023/07/19 12:22:53;;;;;;;2.37;1.47;;;37.10;27.40;;;;;;947735;148;27717;-71
2023/07/19 12:25:21;;;;;;;2.92;1.55;;;37.10;27.50;;;;;;943787;149;26284;-71
2023/07/19 12:27:52;;;;;;;2.62;1.62;;;37.20;27.50;;;;;;963067;146;26224;-71
2023/07/19 12:30:13;;;;;;;2.42;1.77;;;37.30;27.50;;;;;;953248;147;26252;-71
2023/07/19 12:32:39;;;;;;;2.87;1.65;;;37.30;27.40;;;;;;939439;149;26669;-71
2023/07/19 12:35:06;;;;;;;1.75;1.65;;;37.30;27.50;;;;;;962729;146;27449;-71
2023/07/19 12:37:33;;;;;;;2.50;1.77;;;37.30;27.60;;;;;;963246;146;26231;-71
2023/07/19 12:39:59;;;;;;;2.87;1.87;;;37.30;27.60;;;;;;962874;146;26373;-72
2023/07/19 12:42:27;;;;;;;1.75;1.30;;;37.30;27.60;;;;;;962967;146;26373;-71
2023/07/19 12:44:52;;;;;;;1.77;1.67;;;37.30;27.50;;;;;;946553;148;27368;-71
2023/07/19 12:47:19;;;;;;;2.80;1.72;;;37.30;27.60;;;;;;947461;148;26243;-71